createdAt,value
2019-02-20T00:02:50.381Z,9.10
2019-02-20T00:09:16.217Z,6.53
2019-02-20T00:15:45.344Z,6.67
2019-02-20T00:22:23.355Z,7.23
2019-02-20T00:28:48.924Z,8.57
2019-02-20T00:34:42.682Z,9.77
2019-02-20T00:41:10.513Z,9.10
2019-02-20T00:48:15.491Z,7.63
2019-02-20T00:54:41.334Z,10.17
2019-02-20T01:00:33.023Z,7.47
2019-02-20T01:07:02.882Z,8.23
2019-02-20T01:13:40.832Z,9.80
2019-02-20T01:20:05.639Z,7.17
2019-02-20T01:26:32.464Z,14.20
2019-02-20T01:32:33.831Z,8.77
2019-02-20T01:39:12.791Z,11.60
2019-02-20T01:45:36.592Z,8.83
2019-02-20T01:52:04.632Z,6.93
2019-02-20T02:01:33.026Z,8.83
2019-02-20T02:07:58.873Z,10.23
2019-02-20T02:14:36.039Z,10.90
2019-02-20T02:21:01.637Z,14.10
2019-02-20T02:27:28.335Z,14.27
2019-02-20T02:33:30.241Z,8.30
2019-02-20T02:39:55.841Z,10.30
2019-02-20T02:46:21.683Z,10.90
2019-02-20T02:52:48.712Z,11.90
2019-02-20T03:03:03.595Z,10.20
2019-02-20T03:09:40.520Z,14.13
2019-02-20T03:16:06.345Z,9.55
2019-02-20T03:22:34.391Z,7.87
2019-02-20T03:28:26.882Z,12.40
2019-02-20T03:34:28.185Z,13.43
2019-02-20T03:40:54.034Z,15.23
2019-02-20T03:47:20.302Z,11.95
2019-02-20T03:53:59.660Z,9.43
2019-02-20T04:04:03.834Z,7.50
2019-02-20T04:10:30.872Z,13.48
2019-02-20T04:16:58.395Z,8.53
2019-02-20T04:23:26.561Z,11.55
2019-02-20T04:30:03.485Z,10.40
2019-02-20T04:35:52.941Z,11.00
2019-02-20T04:42:18.764Z,8.90
2019-02-20T04:48:55.359Z,6.63
2019-02-20T04:55:25.559Z,9.90
2019-02-20T05:05:28.524Z,10.53
2019-02-20T05:11:54.933Z,12.10
2019-02-20T05:18:19.950Z,6.93
2019-02-20T05:24:59.113Z,12.10
2019-02-20T05:31:25.939Z,10.37
2019-02-20T05:37:53.784Z,7.30
2019-02-20T05:44:30.715Z,10.43
2019-02-20T05:51:00.572Z,10.50
2019-02-20T05:57:26.173Z,7.93
2019-02-20T06:07:29.363Z,6.72
2019-02-20T06:13:59.880Z,8.35
2019-02-20T06:20:42.946Z,8.20
2019-02-20T06:27:09.046Z,9.40
2019-02-20T06:33:36.883Z,8.35
2019-02-20T06:40:15.835Z,8.40
2019-02-20T06:46:40.639Z,8.40
2019-02-20T06:53:08.163Z,9.05
2019-02-20T06:59:49.453Z,12.55
2019-02-20T07:10:41.914Z,17.67
2019-02-20T07:17:42.074Z,10.23
2019-02-20T07:25:02.824Z,9.40
2019-02-20T07:31:35.362Z,13.07
2019-02-20T07:38:00.918Z,18.97
2019-02-20T07:44:26.963Z,13.33
2019-02-20T07:50:53.790Z,17.23
2019-02-20T07:57:32.387Z,17.57
2019-02-20T08:04:02.357Z,11.53
2019-02-20T08:10:19.992Z,22.00
2019-02-20T08:16:58.948Z,18.53
2019-02-20T08:23:26.029Z,17.70
2019-02-20T08:29:54.970Z,13.60
2019-02-20T08:35:55.194Z,20.30
2019-02-20T08:42:40.522Z,18.10
2019-02-20T08:49:16.390Z,19.30
2019-02-20T08:55:43.303Z,16.77
2019-02-20T09:02:20.231Z,18.10
2019-02-20T09:12:10.071Z,15.37
2019-02-20T09:18:35.892Z,23.13
2019-02-20T09:25:01.500Z,27.63
2019-02-20T09:31:28.540Z,16.27
2019-02-20T09:38:04.469Z,14.97
2019-02-20T09:44:28.062Z,12.97
2019-02-20T09:50:55.091Z,15.80
2019-02-20T09:57:31.014Z,14.60
2019-02-20T10:03:55.819Z,15.47
2019-02-20T10:13:57.780Z,16.00
2019-02-20T10:20:25.622Z,12.87
2019-02-20T10:27:00.208Z,15.13
2019-02-20T10:33:33.420Z,20.60
2019-02-20T10:40:01.261Z,15.57
2019-02-20T10:46:26.878Z,23.53
2019-02-20T10:53:03.786Z,20.73
2019-02-20T10:59:30.844Z,23.77
2019-02-20T11:05:19.031Z,35.17
2019-02-20T11:15:24.019Z,34.10
2019-02-20T11:21:51.922Z,20.73
2019-02-20T11:28:31.069Z,23.63
2019-02-20T11:34:59.925Z,20.73
2019-02-20T11:41:27.491Z,19.30
2019-02-20T11:48:06.714Z,15.30
2019-02-20T11:54:34.347Z,14.70
2019-02-20T12:01:01.383Z,13.27
2019-02-20T12:06:51.656Z,10.30
2019-02-20T12:17:07.951Z,11.50
2019-02-20T12:23:46.912Z,12.37
2019-02-20T12:30:12.495Z,9.53
2019-02-20T12:36:38.347Z,11.37
2019-02-20T12:43:07.059Z,12.10
2019-02-20T12:49:33.227Z,10.43
2019-02-20T12:55:59.041Z,11.23
2019-02-20T13:02:24.616Z,6.43
2019-02-20T13:09:01.793Z,6.57
2019-02-20T13:19:19.618Z,7.60
2019-02-20T13:25:43.707Z,6.33
2019-02-20T13:32:11.324Z,9.00
2019-02-20T13:38:48.484Z,10.20
2019-02-20T13:45:16.120Z,7.90
2019-02-20T13:51:46.887Z,10.07
2019-02-20T13:58:15.038Z,5.00
2019-02-20T14:04:55.794Z,10.07
2019-02-20T14:11:22.834Z,5.50
2019-02-20T14:21:29.496Z,5.50
2019-02-20T14:27:55.665Z,9.67
2019-02-20T14:34:32.595Z,9.97
2019-02-20T14:41:00.445Z,10.13
2019-02-20T14:43:56.172Z,5.40
2019-02-20T14:50:01.681Z,6.17
2019-02-20T14:56:28.628Z,12.73
2019-02-20T15:02:54.444Z,6.67
2019-02-20T15:09:35.414Z,6.73
2019-02-20T15:16:01.025Z,17.17
2019-02-20T15:22:25.934Z,6.80
2019-02-20T15:28:51.866Z,10.40
2019-02-20T15:35:19.711Z,6.33
2019-02-20T15:41:45.523Z,9.73
2019-02-20T15:52:01.295Z,20.67
2019-02-20T15:58:29.489Z,7.83
2019-02-20T16:05:10.444Z,10.70
2019-02-20T16:11:43.013Z,6.77
2019-02-20T16:18:09.157Z,12.70
2019-02-20T16:24:49.871Z,5.30
2019-02-20T16:31:17.765Z,5.60
2019-02-20T16:37:45.804Z,10.90
2019-02-20T16:44:10.615Z,11.03
2019-02-20T16:54:13.585Z,8.63
2019-02-20T17:00:56.307Z,7.17
2019-02-20T17:06:46.037Z,8.30
2019-02-20T17:13:11.519Z,8.93
2019-02-20T17:19:51.823Z,11.00
2019-02-20T17:26:22.688Z,10.33
2019-02-20T17:32:49.519Z,15.57
2019-02-20T17:39:15.337Z,19.23
2019-02-20T17:45:54.012Z,15.13
2019-02-20T17:55:58.942Z,13.23
2019-02-20T18:02:29.132Z,14.43
2019-02-20T18:08:20.616Z,10.97
2019-02-20T18:14:48.231Z,12.03
2019-02-20T18:21:15.223Z,12.80
2019-02-20T18:27:41.115Z,12.40
2019-02-20T18:34:08.960Z,9.67
2019-02-20T18:40:15.579Z,13.47
2019-02-20T18:46:41.402Z,11.67
2019-02-20T18:56:54.286Z,9.37
2019-02-20T19:03:21.300Z,9.10
2019-02-20T19:09:51.170Z,10.60
2019-02-20T19:17:17.361Z,9.47
2019-02-20T19:24:56.124Z,10.03
2019-02-20T19:32:38.576Z,10.03
2019-02-20T19:36:27.549Z,15.00
2019-02-20T19:43:41.262Z,9.60
2019-02-20T19:51:14.341Z,10.80
2019-02-20T19:58:40.825Z,10.73
2019-02-20T20:06:12.702Z,7.67
2019-02-20T20:13:39.495Z,10.60
2019-02-20T20:20:37.224Z,7.83
2019-02-20T20:24:36.596Z,8.67
2019-02-20T20:31:49.972Z,16.63
2019-02-20T20:39:01.998Z,12.80
2019-02-20T20:46:33.390Z,9.43
2019-02-20T20:53:51.949Z,7.30
2019-02-20T21:01:01.756Z,8.17
2019-02-20T21:08:16.346Z,10.33
2019-02-20T21:15:44.948Z,9.60
2019-02-20T21:22:13.581Z,9.93
2019-02-20T21:29:39.204Z,7.60
2019-02-20T21:36:54.517Z,10.17
2019-02-20T21:44:05.559Z,12.07
2019-02-20T21:51:24.126Z,10.23
2019-02-20T21:59:07.504Z,12.90
2019-02-20T22:06:29.085Z,12.80
2019-02-20T22:13:40.355Z,9.63
2019-02-20T22:20:24.255Z,14.83
2019-02-20T22:27:45.725Z,8.80
2019-02-20T22:34:40.749Z,8.40
2019-02-20T22:42:14.994Z,13.30
2019-02-20T22:49:43.516Z,10.47
2019-02-20T22:53:15.065Z,8.47
2019-02-20T23:00:01.983Z,10.60
2019-02-20T23:07:28.312Z,11.00
2019-02-20T23:15:00.804Z,11.90
2019-02-20T23:21:33.397Z,15.80
2019-02-20T23:28:05.563Z,11.77
2019-02-20T23:34:32.391Z,10.20
2019-02-20T23:41:00.081Z,10.73
2019-02-20T23:47:39.034Z,10.77
2019-02-20T23:54:03.993Z,9.63
